• Join FlightAware (Why Join?)
  • Login
  • US Flag 
06:50PM EDT


 

Airport Tracker/Info


-or-


 

Live Flight TrackerFlight Track Log ✈ CTL18 ✈ 18-Apr-2013 ✈ KBKL - KPTK

Flight Track Log - Related Links

Times and Time Zones

All times are in EDT time to prevent confusion due to time zone crossing. See the CTL18 flight status page for this flight to view local times or setup timezone preferences in your user account.

Time Position Orientation Groundspeed Altitude Reporting Facility
EDT Latitude Longitude Course Direction KTS MPH feet Rate Location/Type
10:04PM 41.5478 -81.7178 334° Northwest 134 154 1,900  Level Cleveland Center
10:05PM 41.5683 -81.7572 305° West 133 153 2,500 480 Climbing Cleveland Center
10:06PM 41.5825 -81.8044 292° West 144 166 2,900 360 Climbing Cleveland Center
10:07PM 41.6028 -81.8578 297° West 155 178 3,300 420 Climbing Cleveland Center
10:08PM 41.6147 -81.8997 301° West 159 183 3,700 360 Climbing Cleveland Center
10:09PM 41.6347 -81.9583 295° West 163 188 4,000 120 Climbing Cleveland Center
10:10PM 41.6486 -82.0142 288° West 165 190 4,000 -60 Level Cleveland Center
10:11PM 41.6689 -82.0731 295° West 161 185 3,900  Descending Cleveland Center
10:12PM 41.6847 -82.1292 291° West 158 182 4,000  Climbing Cleveland Center
10:13PM 41.6986 -82.1767 291° West 154 177 3,900  Descending Cleveland Center
10:14PM 41.7208 -82.2356 297° West 155 178 4,000  Climbing Cleveland Center
10:15PM 41.7347 -82.2833 291° West 153 176 4,000  Level Cleveland Center
10:16PM 41.7506 -82.3367 292° West 155 178 4,000  Level Cleveland Center
10:17PM 41.7683 -82.3928 293° West 160 184 4,000  Level Cleveland Center
10:18PM 41.7925 -82.4519 299° West 157 181 4,100  Climbing Cleveland Center
10:19PM 41.8083 -82.5053 292° West 155 178 4,100  Level Cleveland Center
10:20PM 41.8242 -82.5503 295° West 155 178 4,100 -60 Level Cleveland Center
10:21PM 41.8381 -82.6011 290° West 146 168 4,000 -60 Descending Cleveland Center
10:22PM 41.8706 -82.6411 318° Northwest 172 198 4,000  Level Cleveland Center
10:23PM 41.9097 -82.6731 329° Northwest 160 184 4,100  Climbing Cleveland Center
10:24PM 41.9506 -82.7078 328° Northwest 164 189 4,100  Level Cleveland Center
10:26PM 41.9958 -82.7428 330° Northwest 160 184 4,100 -60 Level Cleveland Center
10:27PM 42.0286 -82.7719 327° Northwest 157 181 4,000  Descending Cleveland Center
10:28PM 42.0656 -82.8067 325° Northwest 154 177 4,100  Climbing Cleveland Center
10:29PM 42.0983 -82.8386 324° Northwest 151 174 4,000  Descending Cleveland Center
10:30PM 42.1350 -82.8736 325° Northwest 152 175 4,100  Climbing Cleveland Center
10:30PM 42.1619 -82.8914 334° Northwest 151 174 4,000 -60 Descending Cleveland Center
10:32PM 42.2008 -82.9292 324° Northwest 144 166 4,000  Level Cleveland Center
10:33PM 42.2375 -82.9614 327° Northwest 140 161 4,000  Level Cleveland Center
10:34PM 42.2742 -82.9994 322° Northwest 144 166 4,000  Level Cleveland Center
10:35PM 42.3031 -83.0228 329° Northwest 147 169 4,100  Climbing Cleveland Center
10:36PM 42.3397 -83.0636 321° Northwest 149 171 4,100 -180 Level Cleveland Center
10:37PM 42.3744 -83.0986 323° Northwest 163 188 3,800 -360 Descending Cleveland Center
10:38PM 42.4131 -83.1339 326° Northwest 171 197 3,400 -360 Descending Cleveland Center
10:38PM 42.4397 -83.1631 321° Northwest 165 190 3,200 -240 Descending Cleveland Center
10:39PM 42.4700 -83.1983 319° Northwest 161 185 3,100 -60 Descending Cleveland Center
10:40PM 42.5067 -83.2364 323° Northwest 159 183 3,100  Level Cleveland Center
10:42PM 42.5414 -83.2744 321° Northwest 156 180 3,100 -300 Level Cleveland Center
10:43PM 42.5925 -83.3161 329° Northwest 174 200 2,500 -540 Descending Cleveland Center
10:44PM 42.6314 -83.3461 330° Northwest 167 192 2,000 -480 Descending Cleveland Center
10:45PM 42.6636 -83.3869 317° Northwest 125 144 1,600 -360 Descending Cleveland Center
10:47PM 42.6500 -83.4167 304° West  Level FlightAware Approximate
10:54PM 42.6656 -83.4205 304° West  Level Estimated
10:55PM 42.6656 -83.4205 304° West  Level Estimated